sensor_id;sensor_type;location;lat;lon;timestamp;pressure;altitude;pressure_sealevel;temperature;humidity
66857;BME280;53766;50.280;19.160;2023-04-25T00:01:46;97360.44;;;19.75;45.04
66857;BME280;53766;50.280;19.160;2023-04-25T00:04:14;97361.47;;;19.74;44.88
66857;BME280;53766;50.280;19.160;2023-04-25T00:06:42;97364.94;;;19.75;45.00
66857;BME280;53766;50.280;19.160;2023-04-25T00:09:09;97366.00;;;19.73;45.16
66857;BME280;53766;50.280;19.160;2023-04-25T00:11:38;97353.44;;;19.74;44.93
66857;BME280;53766;50.280;19.160;2023-04-25T00:14:05;97355.31;;;19.73;45.09
66857;BME280;53766;50.280;19.160;2023-04-25T00:16:33;97352.66;;;19.73;44.98
66857;BME280;53766;50.280;19.160;2023-04-25T00:19:02;97360.88;;;19.72;45.11
66857;BME280;53766;50.280;19.160;2023-04-25T00:21:30;97352.88;;;19.72;44.98
66857;BME280;53766;50.280;19.160;2023-04-25T00:23:59;97341.38;;;19.71;45.22
66857;BME280;53766;50.280;19.160;2023-04-25T00:26:27;97354.75;;;19.71;45.21
66857;BME280;53766;50.280;19.160;2023-04-25T00:28:55;97358.44;;;19.70;45.08
66857;BME280;53766;50.280;19.160;2023-04-25T00:31:22;97360.09;;;19.71;45.03
66857;BME280;53766;50.280;19.160;2023-04-25T00:33:50;97355.78;;;19.70;44.94
66857;BME280;53766;50.280;19.160;2023-04-25T00:36:18;97363.78;;;19.70;45.10
66857;BME280;53766;50.280;19.160;2023-04-25T00:38:46;97361.34;;;19.69;45.16
66857;BME280;53766;50.280;19.160;2023-04-25T00:41:13;97362.19;;;19.69;45.00
66857;BME280;53766;50.280;19.160;2023-04-25T00:43:41;97369.38;;;19.69;45.13
66857;BME280;53766;50.280;19.160;2023-04-25T00:46:08;97366.69;;;19.69;44.95
66857;BME280;53766;50.280;19.160;2023-04-25T00:48:36;97368.31;;;19.70;45.13
66857;BME280;53766;50.280;19.160;2023-04-25T00:51:03;97365.84;;;19.68;44.93
66857;BME280;53766;50.280;19.160;2023-04-25T00:53:31;97365.84;;;19.68;45.04
66857;BME280;53766;50.280;19.160;2023-04-25T00:55:59;97364.03;;;19.69;44.97
66857;BME280;53766;50.280;19.160;2023-04-25T00:58:26;97360.50;;;19.68;44.95
66857;BME280;53766;50.280;19.160;2023-04-25T01:00:55;97356.25;;;19.67;45.19
66857;BME280;53766;50.280;19.160;2023-04-25T01:03:23;97354.63;;;19.66;44.99
66857;BME280;53766;50.280;19.160;2023-04-25T01:05:51;97357.31;;;19.66;45.11
66857;BME280;53766;50.280;19.160;2023-04-25T01:08:21;97359.97;;;19.66;45.10
66857;BME280;53766;50.280;19.160;2023-04-25T01:10:50;97367.97;;;19.66;45.10
66857;BME280;53766;50.280;19.160;2023-04-25T01:13:18;97357.31;;;19.66;44.97
66857;BME280;53766;50.280;19.160;2023-04-25T01:15:45;97361.81;;;19.66;44.96
66857;BME280;53766;50.280;19.160;2023-04-25T01:18:13;97357.31;;;19.66;44.98
66857;BME280;53766;50.280;19.160;2023-04-25T01:20:41;97369.00;;;19.65;45.12
66857;BME280;53766;50.280;19.160;2023-04-25T01:23:09;97367.41;;;19.64;45.12
66857;BME280;53766;50.280;19.160;2023-04-25T01:25:37;97371.69;;;19.65;45.04
66857;BME280;53766;50.280;19.160;2023-04-25T01:28:05;97367.41;;;19.64;45.16
66857;BME280;53766;50.280;19.160;2023-04-25T01:30:33;97363.09;;;19.63;45.09
66857;BME280;53766;50.280;19.160;2023-04-25T01:33:01;97375.41;;;19.64;45.24
66857;BME280;53766;50.280;19.160;2023-04-25T01:35:29;97370.06;;;19.64;45.10
66857;BME280;53766;50.280;19.160;2023-04-25T01:37:58;97379.94;;;19.64;45.17
66857;BME280;53766;50.280;19.160;2023-04-25T01:40:27;97373.78;;;19.63;44.99
66857;BME280;53766;50.280;19.160;2023-04-25T01:42:55;97379.13;;;19.63;45.04
66857;BME280;53766;50.280;19.160;2023-04-25T01:45:22;97374.84;;;19.62;45.07
66857;BME280;53766;50.280;19.160;2023-04-25T01:47:50;97374.84;;;19.62;45.05
66857;BME280;53766;50.280;19.160;2023-04-25T01:50:18;97376.69;;;19.62;45.17
66857;BME280;53766;50.280;19.160;2023-04-25T01:52:46;97375.88;;;19.61;45.05
66857;BME280;53766;50.280;19.160;2023-04-25T01:55:13;97375.88;;;19.61;45.13
66857;BME280;53766;50.280;19.160;2023-04-25T01:57:41;97375.06;;;19.61;44.96
66857;BME280;53766;50.280;19.160;2023-04-25T02:00:09;97382.28;;;19.60;45.19
66857;BME280;53766;50.280;19.160;2023-04-25T02:02:37;97385.75;;;19.61;45.17
66857;BME280;53766;50.280;19.160;2023-04-25T02:05:05;97380.41;;;19.61;45.30
66857;BME280;53766;50.280;19.160;2023-04-25T02:07:33;97371.59;;;19.60;45.01
66857;BME280;53766;50.280;19.160;2023-04-25T02:10:00;97379.63;;;19.60;45.22
66857;BME280;53766;50.280;19.160;2023-04-25T02:12:28;97383.31;;;19.59;45.00
66857;BME280;53766;50.280;19.160;2023-04-25T02:14:55;97377.16;;;19.59;45.00
66857;BME280;53766;50.280;19.160;2023-04-25T02:17:23;97383.31;;;19.59;45.02
66857;BME280;53766;50.280;19.160;2023-04-25T02:19:50;97385.97;;;19.59;45.09
66857;BME280;53766;50.280;19.160;2023-04-25T02:22:17;97380.91;;;19.58;45.18
66857;BME280;53766;50.280;19.160;2023-04-25T02:24:45;97384.59;;;19.57;45.22
66857;BME280;53766;50.280;19.160;2023-04-25T02:27:13;97390.75;;;19.57;45.27
66857;BME280;53766;50.280;19.160;2023-04-25T02:29:40;97389.16;;;19.56;45.23
66857;BME280;53766;50.280;19.160;2023-04-25T02:32:08;97394.47;;;19.56;45.23
66857;BME280;53766;50.280;19.160;2023-04-25T02:34:35;97399.81;;;19.56;45.03
66857;BME280;53766;50.280;19.160;2023-04-25T02:37:03;97399.81;;;19.56;45.12
66857;BME280;53766;50.280;19.160;2023-04-25T02:39:30;97396.34;;;19.56;45.31
66857;BME280;53766;50.280;19.160;2023-04-25T02:41:57;97395.50;;;19.55;45.14
66857;BME280;53766;50.280;19.160;2023-04-25T02:44:25;97398.19;;;19.55;45.21
66857;BME280;53766;50.280;19.160;2023-04-25T02:46:52;97400.06;;;19.55;45.07
66857;BME280;53766;50.280;19.160;2023-04-25T02:49:20;97401.91;;;19.54;45.10
66857;BME280;53766;50.280;19.160;2023-04-25T02:51:48;97401.91;;;19.54;45.21
66857;BME280;53766;50.280;19.160;2023-04-25T02:54:15;97395.78;;;19.53;45.32
66857;BME280;53766;50.280;19.160;2023-04-25T02:56:42;97402.94;;;19.53;45.25
66857;BME280;53766;50.280;19.160;2023-04-25T02:59:10;97402.94;;;19.53;45.16
66857;BME280;53766;50.280;19.160;2023-04-25T03:01:37;97398.66;;;19.52;45.09
66857;BME280;53766;50.280;19.160;2023-04-25T03:04:04;97404.00;;;19.52;45.28
66857;BME280;53766;50.280;19.160;2023-04-25T03:06:32;97399.69;;;19.51;45.14
66857;BME280;53766;50.280;19.160;2023-04-25T03:09:00;97401.34;;;19.52;45.43
66857;BME280;53766;50.280;19.160;2023-04-25T03:11:27;97402.38;;;19.51;45.28
66857;BME280;53766;50.280;19.160;2023-04-25T03:13:54;97401.56;;;19.50;45.32
66857;BME280;53766;50.280;19.160;2023-04-25T03:16:22;97400.75;;;19.50;45.07
66857;BME280;53766;50.280;19.160;2023-04-25T03:18:49;97401.56;;;19.50;45.30
66857;BME280;53766;50.280;19.160;2023-04-25T03:21:18;97406.09;;;19.50;45.33
66857;BME280;53766;50.280;19.160;2023-04-25T03:23:45;97401.81;;;19.49;45.25
66857;BME280;53766;50.280;19.160;2023-04-25T03:26:13;97399.16;;;19.49;45.34
66857;BME280;53766;50.280;19.160;2023-04-25T03:28:41;97403.66;;;19.48;45.35
66857;BME280;53766;50.280;19.160;2023-04-25T03:31:08;97408.19;;;19.48;45.39
66857;BME280;53766;50.280;19.160;2023-04-25T03:33:36;97403.66;;;19.48;45.38
66857;BME280;53766;50.280;19.160;2023-04-25T03:36:04;97400.19;;;19.48;45.44
66857;BME280;53766;50.280;19.160;2023-04-25T03:38:32;97407.41;;;19.47;45.55
66857;BME280;53766;50.280;19.160;2023-04-25T03:41:01;97400.41;;;19.46;45.40
66857;BME280;53766;50.280;19.160;2023-04-25T03:43:28;97405.75;;;19.46;45.30
66857;BME280;53766;50.280;19.160;2023-04-25T03:45:56;97410.28;;;19.46;45.48
66857;BME280;53766;50.280;19.160;2023-04-25T03:48:23;97415.63;;;19.46;45.48
66857;BME280;53766;50.280;19.160;2023-04-25T03:50:54;97422.63;;;19.47;45.43
66857;BME280;53766;50.280;19.160;2023-04-25T03:53:21;97431.66;;;19.46;45.63
66857;BME280;53766;50.280;19.160;2023-04-25T03:55:49;97425.50;;;19.45;45.48
66857;BME280;53766;50.280;19.160;2023-04-25T03:58:16;97430.84;;;19.45;45.51
66857;BME280;53766;50.280;19.160;2023-04-25T04:00:44;97430.03;;;19.45;45.53
66857;BME280;53766;50.280;19.160;2023-04-25T04:03:11;97434.31;;;19.46;45.53
66857;BME280;53766;50.280;19.160;2023-04-25T04:05:39;97433.75;;;19.44;45.49
66857;BME280;53766;50.280;19.160;2023-04-25T04:08:07;97441.19;;;19.42;45.45
66857;BME280;53766;50.280;19.160;2023-04-25T04:10:35;97444.44;;;19.44;45.61
66857;BME280;53766;50.280;19.160;2023-04-25T04:13:02;97448.16;;;19.43;45.65
66857;BME280;53766;50.280;19.160;2023-04-25T04:15:30;97447.31;;;19.42;45.80
66857;BME280;53766;50.280;19.160;2023-04-25T04:18:00;97446.50;;;19.42;45.77
66857;BME280;53766;50.280;19.160;2023-04-25T04:20:30;97450.81;;;19.43;45.86
66857;BME280;53766;50.280;19.160;2023-04-25T04:22:57;97457.19;;;19.42;46.15
66857;BME280;53766;50.280;19.160;2023-04-25T04:25:25;97454.53;;;19.42;46.12
66857;BME280;53766;50.280;19.160;2023-04-25T04:27:53;97452.66;;;19.42;46.14
66857;BME280;53766;50.280;19.160;2023-04-25T04:30:23;97448.38;;;19.41;46.35
66857;BME280;53766;50.280;19.160;2023-04-25T04:32:56;97450.25;;;19.41;46.18
66857;BME280;53766;50.280;19.160;2023-04-25T04:35:24;97454.88;;;19.45;46.20
66857;BME280;53766;50.280;19.160;2023-04-25T04:37:51;97453.50;;;19.43;46.11
66857;BME280;53766;50.280;19.160;2023-04-25T04:40:19;97451.28;;;19.40;46.17
66857;BME280;53766;50.280;19.160;2023-04-25T04:42:47;97448.03;;;19.38;46.08
66857;BME280;53766;50.280;19.160;2023-04-25T04:45:15;97449.09;;;19.37;46.20
66857;BME280;53766;50.280;19.160;2023-04-25T04:47:43;97456.50;;;19.35;45.97
66857;BME280;53766;50.280;19.160;2023-04-25T04:50:11;97458.38;;;19.34;46.08
66857;BME280;53766;50.280;19.160;2023-04-25T04:52:38;97461.28;;;19.32;46.30
66857;BME280;53766;50.280;19.160;2023-04-25T04:55:06;97458.81;;;19.31;46.01
66857;BME280;53766;50.280;19.160;2023-04-25T04:57:35;97457.44;;;19.28;46.28
66857;BME280;53766;50.280;19.160;2023-04-25T05:00:03;97458.50;;;19.27;46.10
66857;BME280;53766;50.280;19.160;2023-04-25T05:02:38;97456.88;;;19.26;46.11
66857;BME280;53766;50.280;19.160;2023-04-25T05:05:06;97456.28;;;19.24;46.16
66857;BME280;53766;50.280;19.160;2023-04-25T05:07:34;97463.47;;;19.24;46.28
66857;BME280;53766;50.280;19.160;2023-04-25T05:10:02;97457.34;;;19.23;46.35
66857;BME280;53766;50.280;19.160;2023-04-25T05:12:30;97464.78;;;19.21;46.33
66857;BME280;53766;50.280;19.160;2023-04-25T05:14:58;97461.28;;;19.21;46.06
66857;BME280;53766;50.280;19.160;2023-04-25T05:17:25;97467.44;;;19.21;46.12
66857;BME280;53766;50.280;19.160;2023-04-25T05:19:52;97467.09;;;19.18;46.24
66857;BME280;53766;50.280;19.160;2023-04-25T05:22:20;97466.28;;;19.17;46.11
66857;BME280;53766;50.280;19.160;2023-04-25T05:24:47;97470.81;;;19.17;46.23
66857;BME280;53766;50.280;19.160;2023-04-25T05:27:17;97467.56;;;19.15;46.01
66857;BME280;53766;50.280;19.160;2023-04-25T05:29:44;97468.38;;;19.15;46.05
66857;BME280;53766;50.280;19.160;2023-04-25T05:32:12;97477.44;;;19.14;46.10
66857;BME280;53766;50.280;19.160;2023-04-25T05:34:39;97472.09;;;19.14;46.06
66857;BME280;53766;50.280;19.160;2023-04-25T05:37:07;97476.59;;;19.14;45.90
66857;BME280;53766;50.280;19.160;2023-04-25T05:39:35;97481.13;;;19.13;45.98
66857;BME280;53766;50.280;19.160;2023-04-25T05:42:02;97481.94;;;19.14;45.97
66857;BME280;53766;50.280;19.160;2023-04-25T05:44:31;97475.56;;;19.15;45.92
66857;BME280;53766;50.280;19.160;2023-04-25T05:46:58;97478.22;;;19.15;46.10
66857;BME280;53766;50.280;19.160;2023-04-25T05:49:26;97470.22;;;19.15;45.75
66857;BME280;53766;50.280;19.160;2023-04-25T05:51:53;97474.75;;;19.14;45.94
66857;BME280;53766;50.280;19.160;2023-04-25T05:54:21;97479.03;;;19.15;45.84
66857;BME280;53766;50.280;19.160;2023-04-25T05:56:48;97472.09;;;19.14;45.65
66857;BME280;53766;50.280;19.160;2023-04-25T05:59:17;97485.44;;;19.14;46.02
66857;BME280;53766;50.280;19.160;2023-04-25T06:01:44;97488.09;;;19.14;45.89
66857;BME280;53766;50.280;19.160;2023-04-25T06:04:11;97486.00;;;19.16;45.83
66857;BME280;53766;50.280;19.160;2023-04-25T06:06:39;97483.31;;;19.16;45.86
66857;BME280;53766;50.280;19.160;2023-04-25T06:09:07;97490.53;;;19.16;45.73
66857;BME280;53766;50.280;19.160;2023-04-25T06:11:34;97495.06;;;19.15;45.81
66857;BME280;53766;50.280;19.160;2023-04-25T06:14:02;97495.06;;;19.15;45.80
66857;BME280;53766;50.280;19.160;2023-04-25T06:16:29;97491.31;;;19.16;45.84
66857;BME280;53766;50.280;19.160;2023-04-25T06:18:57;97483.31;;;19.16;45.90
66857;BME280;53766;50.280;19.160;2023-04-25T06:21:24;97491.31;;;19.16;45.94
66857;BME280;53766;50.280;19.160;2023-04-25T06:23:52;97490.53;;;19.16;46.03
66857;BME280;53766;50.280;19.160;2023-04-25T06:26:20;97502.84;;;19.17;45.91
66857;BME280;53766;50.280;19.160;2023-04-25T06:28:48;97488.66;;;19.16;45.80
66857;BME280;53766;50.280;19.160;2023-04-25T06:31:15;97496.66;;;19.16;45.96
66857;BME280;53766;50.280;19.160;2023-04-25T06:33:43;97491.31;;;19.16;45.88
66857;BME280;53766;50.280;19.160;2023-04-25T06:36:10;97491.31;;;19.16;45.70
66857;BME280;53766;50.280;19.160;2023-04-25T06:38:38;97491.31;;;19.16;45.91
66857;BME280;53766;50.280;19.160;2023-04-25T06:41:05;97495.06;;;19.15;45.73
66857;BME280;53766;50.280;19.160;2023-04-25T06:43:32;97495.06;;;19.15;45.86
66857;BME280;53766;50.280;19.160;2023-04-25T06:46:00;97502.25;;;19.15;45.81
66857;BME280;53766;50.280;19.160;2023-04-25T06:48:28;97500.38;;;19.15;45.60
66857;BME280;53766;50.280;19.160;2023-04-25T06:50:55;97492.59;;;19.14;45.52
66857;BME280;53766;50.280;19.160;2023-04-25T06:53:23;97492.59;;;19.14;45.57
66857;BME280;53766;50.280;19.160;2023-04-25T06:55:51;97497.13;;;19.13;45.50
66857;BME280;53766;50.280;19.160;2023-04-25T06:58:18;97497.13;;;19.13;45.75
66857;BME280;53766;50.280;19.160;2023-04-25T07:00:46;97490.19;;;19.12;45.61
66857;BME280;53766;50.280;19.160;2023-04-25T07:03:13;97500.88;;;19.12;45.74
66857;BME280;53766;50.280;19.160;2023-04-25T07:05:41;97488.56;;;19.11;45.62
66857;BME280;53766;50.280;19.160;2023-04-25T07:08:09;97488.56;;;19.11;45.64
66857;BME280;53766;50.280;19.160;2023-04-25T07:10:36;97497.13;;;19.13;45.63
66857;BME280;53766;50.280;19.160;2023-04-25T07:13:03;97498.19;;;19.12;45.64
66857;BME280;53766;50.280;19.160;2023-04-25T07:15:31;97496.34;;;19.13;45.65
66857;BME280;53766;50.280;19.160;2023-04-25T07:17:58;97500.88;;;19.12;45.52
66857;BME280;53766;50.280;19.160;2023-04-25T07:20:26;97495.53;;;19.12;45.51
66857;BME280;53766;50.280;19.160;2023-04-25T07:22:55;97499.22;;;19.11;45.42
66857;BME280;53766;50.280;19.160;2023-04-25T07:25:22;97501.91;;;19.11;45.42
66857;BME280;53766;50.280;19.160;2023-04-25T07:27:50;97500.03;;;19.11;45.50
66857;BME280;53766;50.280;19.160;2023-04-25T07:30:17;97498.41;;;19.10;45.58
66857;BME280;53766;50.280;19.160;2023-04-25T07:32:44;97498.88;;;19.07;45.46
66857;BME280;53766;50.280;19.160;2023-04-25T07:35:12;97497.25;;;19.06;45.63
66857;BME280;53766;50.280;19.160;2023-04-25T07:37:40;97503.06;;;19.03;45.12
66857;BME280;53766;50.280;19.160;2023-04-25T07:40:08;97501.41;;;19.02;45.08
66857;BME280;53766;50.280;19.160;2023-04-25T07:42:36;97500.63;;;19.02;45.21
66857;BME280;53766;50.280;19.160;2023-04-25T07:45:04;97506.75;;;19.02;44.94
66857;BME280;53766;50.280;19.160;2023-04-25T07:47:32;97495.28;;;19.02;44.88
66857;BME280;53766;50.280;19.160;2023-04-25T07:49:59;97499.81;;;19.01;44.75
66857;BME280;53766;50.280;19.160;2023-04-25T07:52:27;97496.09;;;19.02;44.52
66857;BME280;53766;50.280;19.160;2023-04-25T07:54:55;97503.28;;;19.02;44.44
66857;BME280;53766;50.280;19.160;2023-04-25T07:57:23;97500.63;;;19.02;44.13
66857;BME280;53766;50.280;19.160;2023-04-25T07:59:51;97504.91;;;19.03;44.08
66857;BME280;53766;50.280;19.160;2023-04-25T08:02:19;97495.28;;;19.02;43.95
66857;BME280;53766;50.280;19.160;2023-04-25T08:04:47;97503.88;;;19.04;44.05
66857;BME280;53766;50.280;19.160;2023-04-25T08:07:17;97504.09;;;19.02;44.02
66857;BME280;53766;50.280;19.160;2023-04-25T08:09:44;97503.88;;;19.04;43.76
66857;BME280;53766;50.280;19.160;2023-04-25T08:12:11;97503.06;;;19.03;44.05
66857;BME280;53766;50.280;19.160;2023-04-25T08:14:39;97503.06;;;19.03;43.85
66857;BME280;53766;50.280;19.160;2023-04-25T08:17:06;97499.34;;;19.04;43.86
66857;BME280;53766;50.280;19.160;2023-04-25T08:19:34;97503.66;;;19.05;43.83
66857;BME280;53766;50.280;19.160;2023-04-25T08:22:02;97503.66;;;19.05;43.97
66857;BME280;53766;50.280;19.160;2023-04-25T08:24:29;97497.25;;;19.06;44.05
66857;BME280;53766;50.280;19.160;2023-04-25T08:26:56;97499.91;;;19.06;44.22
66857;BME280;53766;50.280;19.160;2023-04-25T08:29:26;97498.88;;;19.07;44.05
66857;BME280;53766;50.280;19.160;2023-04-25T08:31:53;97500.50;;;19.08;44.12
66857;BME280;53766;50.280;19.160;2023-04-25T08:34:21;97495.97;;;19.09;44.17
66857;BME280;53766;50.280;19.160;2023-04-25T08:36:48;97497.63;;;19.10;44.02
66857;BME280;53766;50.280;19.160;2023-04-25T08:39:16;97495.97;;;19.09;44.08
66857;BME280;53766;50.280;19.160;2023-04-25T08:41:44;97497.63;;;19.10;43.80
66857;BME280;53766;50.280;19.160;2023-04-25T08:44:12;97502.94;;;19.10;43.68
66857;BME280;53766;50.280;19.160;2023-04-25T08:46:41;97497.13;;;19.13;43.82
66857;BME280;53766;50.280;19.160;2023-04-25T08:49:08;97501.66;;;19.13;43.64
66857;BME280;53766;50.280;19.160;2023-04-25T08:51:43;97497.13;;;19.13;43.85
66857;BME280;53766;50.280;19.160;2023-04-25T08:54:12;97496.09;;;19.14;43.56
66857;BME280;53766;50.280;19.160;2023-04-25T08:56:47;97498.78;;;19.14;43.79
66857;BME280;53766;50.280;19.160;2023-04-25T08:59:15;97500.97;;;19.17;43.82
66857;BME280;53766;50.280;19.160;2023-04-25T09:01:42;97498.31;;;19.17;43.67
66857;BME280;53766;50.280;19.160;2023-04-25T09:04:12;97498.31;;;19.17;43.65
66857;BME280;53766;50.280;19.160;2023-04-25T09:06:39;97502.84;;;19.17;43.67
66857;BME280;53766;50.280;19.160;2023-04-25T09:09:08;97499.91;;;19.18;43.77
66857;BME280;53766;50.280;19.160;2023-04-25T09:11:37;97493.56;;;19.19;43.47
66857;BME280;53766;50.280;19.160;2023-04-25T09:14:16;97497.03;;;19.20;43.65
66857;BME280;53766;50.280;19.160;2023-04-25T09:19:34;97504.22;;;19.19;43.59
66857;BME280;53766;50.280;19.160;2023-04-25T09:22:08;97506.91;;;19.19;43.54
66857;BME280;53766;50.280;19.160;2023-04-25T09:24:41;97498.66;;;19.21;43.47
66857;BME280;53766;50.280;19.160;2023-04-25T09:27:12;97503.16;;;19.20;43.56
66857;BME280;53766;50.280;19.160;2023-04-25T09:29:40;97500.50;;;19.20;43.45
66857;BME280;53766;50.280;19.160;2023-04-25T09:32:20;97503.16;;;19.20;43.48
66857;BME280;53766;50.280;19.160;2023-04-25T09:34:48;97503.16;;;19.20;43.49
66857;BME280;53766;50.280;19.160;2023-04-25T09:37:27;97500.50;;;19.20;43.45
66857;BME280;53766;50.280;19.160;2023-04-25T09:39:59;97497.03;;;19.20;43.67
66857;BME280;53766;50.280;19.160;2023-04-25T09:42:29;97504.22;;;19.19;43.36
66857;BME280;53766;50.280;19.160;2023-04-25T09:45:00;97504.22;;;19.19;43.43
66857;BME280;53766;50.280;19.160;2023-04-25T09:47:29;97506.91;;;19.19;43.49
66857;BME280;53766;50.280;19.160;2023-04-25T09:49:56;97506.09;;;19.19;43.48
66857;BME280;53766;50.280;19.160;2023-04-25T09:52:24;97505.25;;;19.18;43.75
66857;BME280;53766;50.280;19.160;2023-04-25T09:54:52;97505.25;;;19.18;43.56
66857;BME280;53766;50.280;19.160;2023-04-25T09:57:22;97502.59;;;19.18;43.47
66857;BME280;53766;50.280;19.160;2023-04-25T09:59:52;97505.03;;;19.20;43.41
66857;BME280;53766;50.280;19.160;2023-04-25T10:02:25;97496.22;;;19.19;43.27
66857;BME280;53766;50.280;19.160;2023-04-25T10:04:54;97496.22;;;19.19;43.47
66857;BME280;53766;50.280;19.160;2023-04-25T10:07:24;97497.81;;;19.20;43.49
66857;BME280;53766;50.280;19.160;2023-04-25T10:10:01;97492.50;;;19.20;43.22
66857;BME280;53766;50.280;19.160;2023-04-25T10:12:31;97498.66;;;19.21;43.25
66857;BME280;53766;50.280;19.160;2023-04-25T10:15:00;97491.47;;;19.21;43.44
66857;BME280;53766;50.280;19.160;2023-04-25T10:17:28;97495.75;;;19.22;43.53
66857;BME280;53766;50.280;19.160;2023-04-25T10:19:56;97490.97;;;19.24;43.35
66857;BME280;53766;50.280;19.160;2023-04-25T10:22:36;97489.13;;;19.25;43.32
66857;BME280;53766;50.280;19.160;2023-04-25T10:25:04;97483.78;;;19.25;43.37
66857;BME280;53766;50.280;19.160;2023-04-25T10:27:33;97485.41;;;19.26;43.32
66857;BME280;53766;50.280;19.160;2023-04-25T10:30:08;97485.41;;;19.26;43.52
66857;BME280;53766;50.280;19.160;2023-04-25T10:32:38;97483.56;;;19.26;43.34
66857;BME280;53766;50.280;19.160;2023-04-25T10:35:17;97478.81;;;19.28;43.33
66857;BME280;53766;50.280;19.160;2023-04-25T10:40:24;97480.44;;;19.29;43.26
66857;BME280;53766;50.280;19.160;2023-04-25T10:42:53;97480.44;;;19.29;43.29
66857;BME280;53766;50.280;19.160;2023-04-25T10:45:23;97480.44;;;19.29;43.21
66857;BME280;53766;50.280;19.160;2023-04-25T10:47:51;97484.13;;;19.28;43.35
66857;BME280;53766;50.280;19.160;2023-04-25T10:50:18;97485.78;;;19.29;43.12
66857;BME280;53766;50.280;19.160;2023-04-25T10:52:46;97472.44;;;19.29;43.23
66857;BME280;53766;50.280;19.160;2023-04-25T10:55:13;97472.66;;;19.28;43.14
66857;BME280;53766;50.280;19.160;2023-04-25T11:00:14;97472.66;;;19.28;43.04
66857;BME280;53766;50.280;19.160;2023-04-25T11:02:47;97468.13;;;19.28;42.96
66857;BME280;53766;50.280;19.160;2023-04-25T11:05:23;97468.13;;;19.28;43.03
66857;BME280;53766;50.280;19.160;2023-04-25T11:07:52;97464.66;;;19.28;43.04
66857;BME280;53766;50.280;19.160;2023-04-25T11:10:34;97462.78;;;19.28;42.90
66857;BME280;53766;50.280;19.160;2023-04-25T11:13:04;97471.59;;;19.29;42.96
66857;BME280;53766;50.280;19.160;2023-04-25T11:15:32;97463.59;;;19.29;42.92
66857;BME280;53766;50.280;19.160;2023-04-25T11:17:59;97464.44;;;19.29;43.00
66857;BME280;53766;50.280;19.160;2023-04-25T11:20:28;97471.38;;;19.30;43.04
66857;BME280;53766;50.280;19.160;2023-04-25T11:22:58;97472.19;;;19.31;43.07
66857;BME280;53766;50.280;19.160;2023-04-25T11:25:27;97470.56;;;19.30;42.85
66857;BME280;53766;50.280;19.160;2023-04-25T11:27:58;97482.06;;;19.30;42.75
66857;BME280;53766;50.280;19.160;2023-04-25T11:30:26;97475.09;;;19.29;43.03
66857;BME280;53766;50.280;19.160;2023-04-25T11:32:53;97477.78;;;19.29;42.88
66857;BME280;53766;50.280;19.160;2023-04-25T11:35:21;97479.59;;;19.29;42.90
66857;BME280;53766;50.280;19.160;2023-04-25T11:37:50;97478.81;;;19.28;42.75
66857;BME280;53766;50.280;19.160;2023-04-25T11:40:18;97484.13;;;19.28;42.86
66857;BME280;53766;50.280;19.160;2023-04-25T11:42:46;97481.69;;;19.27;42.74
66857;BME280;53766;50.280;19.160;2023-04-25T11:45:14;97476.34;;;19.27;42.83
66857;BME280;53766;50.280;19.160;2023-04-25T11:47:42;97481.69;;;19.27;42.88
66857;BME280;53766;50.280;19.160;2023-04-25T11:50:10;97478.22;;;19.26;42.75
66857;BME280;53766;50.280;19.160;2023-04-25T11:52:42;97473.69;;;19.27;42.79
66857;BME280;53766;50.280;19.160;2023-04-25T11:55:17;97470.22;;;19.26;42.75
66857;BME280;53766;50.280;19.160;2023-04-25T11:57:47;97480.88;;;19.26;42.70
66857;BME280;53766;50.280;19.160;2023-04-25T12:00:17;97476.59;;;19.25;42.88
66857;BME280;53766;50.280;19.160;2023-04-25T12:02:47;97482.97;;;19.24;42.81
66857;BME280;53766;50.280;19.160;2023-04-25T12:05:15;97473.94;;;19.25;42.67
66857;BME280;53766;50.280;19.160;2023-04-25T12:08:12;97477.63;;;19.24;42.72
66857;BME280;53766;50.280;19.160;2023-04-25T12:10:41;97470.69;;;19.23;42.78
66857;BME280;53766;50.280;19.160;2023-04-25T12:13:26;97488.31;;;19.24;42.75
66857;BME280;53766;50.280;19.160;2023-04-25T12:15:55;97492.03;;;19.23;42.72
66857;BME280;53766;50.280;19.160;2023-04-25T12:18:24;97483.44;;;19.21;42.62
66857;BME280;53766;50.280;19.160;2023-04-25T12:20:54;97485.06;;;19.22;42.60
66857;BME280;53766;50.280;19.160;2023-04-25T12:23:28;97490.41;;;19.22;42.69
66857;BME280;53766;50.280;19.160;2023-04-25T12:25:56;97485.06;;;19.22;42.54
66857;BME280;53766;50.280;19.160;2023-04-25T12:28:24;97490.41;;;19.22;42.66
66857;BME280;53766;50.280;19.160;2023-04-25T12:31:02;97483.44;;;19.21;42.63
66857;BME280;53766;50.280;19.160;2023-04-25T12:33:32;97489.81;;;19.20;42.70
66857;BME280;53766;50.280;19.160;2023-04-25T12:36:01;97486.34;;;19.20;42.61
66857;BME280;53766;50.280;19.160;2023-04-25T12:38:36;97491.69;;;19.20;42.68
66857;BME280;53766;50.280;19.160;2023-04-25T12:41:04;97488.22;;;19.19;42.63
66857;BME280;53766;50.280;19.160;2023-04-25T12:43:32;97480.19;;;19.19;42.53
66857;BME280;53766;50.280;19.160;2023-04-25T12:46:00;97489.25;;;19.18;42.48
66857;BME280;53766;50.280;19.160;2023-04-25T12:48:27;97484.97;;;19.17;42.54
66857;BME280;53766;50.280;19.160;2023-04-25T12:50:55;97488.66;;;19.16;42.61
66857;BME280;53766;50.280;19.160;2023-04-25T12:53:23;97481.47;;;19.17;42.46
66857;BME280;53766;50.280;19.160;2023-04-25T12:55:53;97486.81;;;19.17;42.62
66857;BME280;53766;50.280;19.160;2023-04-25T12:58:22;97486.00;;;19.16;42.57
66857;BME280;53766;50.280;19.160;2023-04-25T13:00:50;97485.19;;;19.16;42.33
66857;BME280;53766;50.280;19.160;2023-04-25T13:03:18;97484.38;;;19.15;42.42
66857;BME280;53766;50.280;19.160;2023-04-25T13:05:45;97490.78;;;19.14;42.47